sensor_id;sensor_type;location;lat;lon;timestamp;temperature;humidity
58554;DHT22;48119;53.218;6.576;2023-01-31T00:00:04;8.40;99.90
58554;DHT22;48119;53.218;6.576;2023-01-31T00:02:42;8.40;99.90
58554;DHT22;48119;53.218;6.576;2023-01-31T00:05:08;8.40;99.90
58554;DHT22;48119;53.218;6.576;2023-01-31T00:07:36;8.40;99.90
58554;DHT22;48119;53.218;6.576;2023-01-31T00:10:02;8.40;99.90
58554;DHT22;48119;53.218;6.576;2023-01-31T00:12:30;8.30;99.90
58554;DHT22;48119;53.218;6.576;2023-01-31T00:14:56;8.40;99.90
58554;DHT22;48119;53.218;6.576;2023-01-31T00:17:25;8.30;99.90
58554;DHT22;48119;53.218;6.576;2023-01-31T00:19:51;8.30;99.90
58554;DHT22;48119;53.218;6.576;2023-01-31T00:22:20;8.30;99.90
58554;DHT22;48119;53.218;6.576;2023-01-31T00:24:51;8.30;99.90
58554;DHT22;48119;53.218;6.576;2023-01-31T00:27:17;8.30;99.90
58554;DHT22;48119;53.218;6.576;2023-01-31T00:29:44;8.30;99.90
58554;DHT22;48119;53.218;6.576;2023-01-31T00:32:13;8.30;99.90
58554;DHT22;48119;53.218;6.576;2023-01-31T00:34:46;8.20;99.90
58554;DHT22;48119;53.218;6.576;2023-01-31T00:37:15;8.30;99.90
58554;DHT22;48119;53.218;6.576;2023-01-31T00:39:40;8.30;99.90
58554;DHT22;48119;53.218;6.576;2023-01-31T00:42:09;8.30;99.90
58554;DHT22;48119;53.218;6.576;2023-01-31T00:44:37;8.30;99.90
58554;DHT22;48119;53.218;6.576;2023-01-31T00:47:06;8.30;99.90
58554;DHT22;48119;53.218;6.576;2023-01-31T00:49:31;8.30;99.90
58554;DHT22;48119;53.218;6.576;2023-01-31T00:52:00;8.30;99.90
58554;DHT22;48119;53.218;6.576;2023-01-31T00:54:26;8.30;99.90
58554;DHT22;48119;53.218;6.576;2023-01-31T00:56:55;8.30;99.90
58554;DHT22;48119;53.218;6.576;2023-01-31T00:59:20;8.20;99.90
58554;DHT22;48119;53.218;6.576;2023-01-31T01:01:48;8.20;99.90
58554;DHT22;48119;53.218;6.576;2023-01-31T01:04:17;8.20;99.90
58554;DHT22;48119;53.218;6.576;2023-01-31T01:06:50;8.20;99.90
58554;DHT22;48119;53.218;6.576;2023-01-31T01:09:19;8.20;99.90
58554;DHT22;48119;53.218;6.576;2023-01-31T01:11:48;8.20;99.90
58554;DHT22;48119;53.218;6.576;2023-01-31T01:14:14;8.20;99.90
58554;DHT22;48119;53.218;6.576;2023-01-31T01:16:40;8.20;99.90
58554;DHT22;48119;53.218;6.576;2023-01-31T01:19:16;8.20;99.90
58554;DHT22;48119;53.218;6.576;2023-01-31T01:21:45;8.30;99.90
58554;DHT22;48119;53.218;6.576;2023-01-31T01:24:14;8.20;99.90
58554;DHT22;48119;53.218;6.576;2023-01-31T01:26:40;8.20;99.90
58554;DHT22;48119;53.218;6.576;2023-01-31T01:29:06;8.20;99.90
58554;DHT22;48119;53.218;6.576;2023-01-31T01:31:37;8.20;99.90
58554;DHT22;48119;53.218;6.576;2023-01-31T01:34:13;8.20;99.90
58554;DHT22;48119;53.218;6.576;2023-01-31T01:36:40;8.20;99.90
58554;DHT22;48119;53.218;6.576;2023-01-31T01:39:07;8.20;99.90
58554;DHT22;48119;53.218;6.576;2023-01-31T01:41:38;8.10;99.90
58554;DHT22;48119;53.218;6.576;2023-01-31T01:47:39;8.20;99.90
58554;DHT22;48119;53.218;6.576;2023-01-31T01:53:01;8.10;99.90
58554;DHT22;48119;53.218;6.576;2023-01-31T01:55:33;8.10;99.90
58554;DHT22;48119;53.218;6.576;2023-01-31T02:00:49;8.10;99.90
58554;DHT22;48119;53.218;6.576;2023-01-31T02:03:15;8.10;99.90
58554;DHT22;48119;53.218;6.576;2023-01-31T02:06:03;8.10;99.90
58554;DHT22;48119;53.218;6.576;2023-01-31T02:08:32;8.10;99.90
58554;DHT22;48119;53.218;6.576;2023-01-31T02:13:28;8.10;99.90
58554;DHT22;48119;53.218;6.576;2023-01-31T02:15:55;8.10;99.90
58554;DHT22;48119;53.218;6.576;2023-01-31T02:18:24;8.10;99.90
58554;DHT22;48119;53.218;6.576;2023-01-31T02:24:18;8.10;99.90
58554;DHT22;48119;53.218;6.576;2023-01-31T02:27:11;8.10;99.90
58554;DHT22;48119;53.218;6.576;2023-01-31T02:38:43;8.10;99.90
58554;DHT22;48119;53.218;6.576;2023-01-31T02:41:17;8.10;99.90
58554;DHT22;48119;53.218;6.576;2023-01-31T02:46:59;8.10;99.90
58554;DHT22;48119;53.218;6.576;2023-01-31T02:55:22;8.30;99.90
58554;DHT22;48119;53.218;6.576;2023-01-31T02:58:11;8.30;99.90
58554;DHT22;48119;53.218;6.576;2023-01-31T03:00:42;8.20;99.90
58554;DHT22;48119;53.218;6.576;2023-01-31T03:03:19;8.20;99.90
58554;DHT22;48119;53.218;6.576;2023-01-31T03:08:30;8.20;99.90
58554;DHT22;48119;53.218;6.576;2023-01-31T03:11:03;8.20;99.90
58554;DHT22;48119;53.218;6.576;2023-01-31T03:13:34;8.20;99.90
58554;DHT22;48119;53.218;6.576;2023-01-31T03:16:12;8.30;99.90
58554;DHT22;48119;53.218;6.576;2023-01-31T03:22:09;8.30;99.90
58554;DHT22;48119;53.218;6.576;2023-01-31T03:24:37;8.20;99.90
58554;DHT22;48119;53.218;6.576;2023-01-31T03:27:04;8.20;99.90
58554;DHT22;48119;53.218;6.576;2023-01-31T03:29:34;8.20;99.90
58554;DHT22;48119;53.218;6.576;2023-01-31T03:32:08;8.20;99.90
58554;DHT22;48119;53.218;6.576;2023-01-31T03:34:36;8.30;99.90
58554;DHT22;48119;53.218;6.576;2023-01-31T03:37:24;8.30;99.90
58554;DHT22;48119;53.218;6.576;2023-01-31T03:40:06;8.30;99.90
58554;DHT22;48119;53.218;6.576;2023-01-31T03:42:50;8.20;99.90
58554;DHT22;48119;53.218;6.576;2023-01-31T03:45:29;8.30;99.90
58554;DHT22;48119;53.218;6.576;2023-01-31T03:47:58;8.20;99.90
58554;DHT22;48119;53.218;6.576;2023-01-31T03:50:30;8.30;99.90
58554;DHT22;48119;53.218;6.576;2023-01-31T03:53:08;8.30;99.90
58554;DHT22;48119;53.218;6.576;2023-01-31T03:55:48;8.30;99.90
58554;DHT22;48119;53.218;6.576;2023-01-31T03:58:18;8.30;99.90
58554;DHT22;48119;53.218;6.576;2023-01-31T04:00:54;8.30;99.90
58554;DHT22;48119;53.218;6.576;2023-01-31T04:03:41;8.40;99.90
58554;DHT22;48119;53.218;6.576;2023-01-31T04:06:13;8.40;99.90
58554;DHT22;48119;53.218;6.576;2023-01-31T04:08:39;8.40;99.90
58554;DHT22;48119;53.218;6.576;2023-01-31T04:11:36;8.40;99.90
58554;DHT22;48119;53.218;6.576;2023-01-31T04:14:05;8.40;99.90
58554;DHT22;48119;53.218;6.576;2023-01-31T04:16:34;8.40;99.90
58554;DHT22;48119;53.218;6.576;2023-01-31T04:19:03;8.40;99.90
58554;DHT22;48119;53.218;6.576;2023-01-31T04:21:28;8.40;99.90
58554;DHT22;48119;53.218;6.576;2023-01-31T04:23:54;8.40;99.90
58554;DHT22;48119;53.218;6.576;2023-01-31T04:26:23;8.50;99.90
58554;DHT22;48119;53.218;6.576;2023-01-31T04:28:49;8.50;99.90
58554;DHT22;48119;53.218;6.576;2023-01-31T04:31:21;8.40;99.90
58554;DHT22;48119;53.218;6.576;2023-01-31T04:33:49;8.40;99.90
58554;DHT22;48119;53.218;6.576;2023-01-31T04:36:24;8.40;99.90
58554;DHT22;48119;53.218;6.576;2023-01-31T04:38:50;8.50;99.90
58554;DHT22;48119;53.218;6.576;2023-01-31T04:41:16;8.40;99.90
58554;DHT22;48119;53.218;6.576;2023-01-31T04:43:42;8.50;99.90
58554;DHT22;48119;53.218;6.576;2023-01-31T04:46:10;8.50;99.90
58554;DHT22;48119;53.218;6.576;2023-01-31T04:48:36;8.50;99.90
58554;DHT22;48119;53.218;6.576;2023-01-31T04:51:09;8.50;99.90
58554;DHT22;48119;53.218;6.576;2023-01-31T04:53:35;8.50;99.90
58554;DHT22;48119;53.218;6.576;2023-01-31T04:56:08;8.50;99.90
58554;DHT22;48119;53.218;6.576;2023-01-31T04:58:34;8.60;99.90
58554;DHT22;48119;53.218;6.576;2023-01-31T05:01:00;8.60;99.90
58554;DHT22;48119;53.218;6.576;2023-01-31T05:03:29;8.60;99.90
58554;DHT22;48119;53.218;6.576;2023-01-31T05:05:55;8.60;99.90
58554;DHT22;48119;53.218;6.576;2023-01-31T05:08:23;8.60;99.90
58554;DHT22;48119;53.218;6.576;2023-01-31T05:11:03;8.70;99.90
58554;DHT22;48119;53.218;6.576;2023-01-31T05:13:30;8.70;99.90
58554;DHT22;48119;53.218;6.576;2023-01-31T05:16:07;8.70;99.90
58554;DHT22;48119;53.218;6.576;2023-01-31T05:18:36;8.70;99.90
58554;DHT22;48119;53.218;6.576;2023-01-31T05:21:06;8.70;99.90
58554;DHT22;48119;53.218;6.576;2023-01-31T05:23:32;8.70;99.90
58554;DHT22;48119;53.218;6.576;2023-01-31T05:26:00;8.80;99.90
58554;DHT22;48119;53.218;6.576;2023-01-31T05:28:29;8.80;99.90
58554;DHT22;48119;53.218;6.576;2023-01-31T05:31:06;8.80;99.90
58554;DHT22;48119;53.218;6.576;2023-01-31T05:33:33;8.80;99.90
58554;DHT22;48119;53.218;6.576;2023-01-31T05:36:01;8.80;99.90
58554;DHT22;48119;53.218;6.576;2023-01-31T05:38:27;8.80;99.90
58554;DHT22;48119;53.218;6.576;2023-01-31T05:40:53;8.80;99.90
58554;DHT22;48119;53.218;6.576;2023-01-31T05:43:19;8.80;99.90
58554;DHT22;48119;53.218;6.576;2023-01-31T05:45:48;8.80;99.90
58554;DHT22;48119;53.218;6.576;2023-01-31T05:48:19;8.80;99.90
58554;DHT22;48119;53.218;6.576;2023-01-31T05:50:48;8.80;99.90
58554;DHT22;48119;53.218;6.576;2023-01-31T05:53:16;8.80;99.90
58554;DHT22;48119;53.218;6.576;2023-01-31T05:55:48;8.80;99.90
58554;DHT22;48119;53.218;6.576;2023-01-31T05:58:18;8.80;99.90
58554;DHT22;48119;53.218;6.576;2023-01-31T06:00:44;8.80;99.90
58554;DHT22;48119;53.218;6.576;2023-01-31T06:03:10;8.80;99.90
58554;DHT22;48119;53.218;6.576;2023-01-31T06:05:46;8.80;99.90
58554;DHT22;48119;53.218;6.576;2023-01-31T06:08:15;8.80;99.90
58554;DHT22;48119;53.218;6.576;2023-01-31T06:10:42;8.80;99.90
58554;DHT22;48119;53.218;6.576;2023-01-31T06:13:15;8.80;99.90
58554;DHT22;48119;53.218;6.576;2023-01-31T06:15:44;8.80;99.90
58554;DHT22;48119;53.218;6.576;2023-01-31T06:18:12;8.80;99.90
58554;DHT22;48119;53.218;6.576;2023-01-31T06:20:41;8.80;99.90
58554;DHT22;48119;53.218;6.576;2023-01-31T06:23:07;8.80;99.90
58554;DHT22;48119;53.218;6.576;2023-01-31T06:25:35;8.80;99.90
58554;DHT22;48119;53.218;6.576;2023-01-31T06:28:06;8.80;99.90
58554;DHT22;48119;53.218;6.576;2023-01-31T06:30:34;8.80;99.90
58554;DHT22;48119;53.218;6.576;2023-01-31T06:33:01;8.80;99.90
58554;DHT22;48119;53.218;6.576;2023-01-31T06:35:27;8.90;99.90
58554;DHT22;48119;53.218;6.576;2023-01-31T06:37:55;8.80;99.90
58554;DHT22;48119;53.218;6.576;2023-01-31T06:40:21;8.90;99.90
58554;DHT22;48119;53.218;6.576;2023-01-31T06:42:47;8.90;99.90
58554;DHT22;48119;53.218;6.576;2023-01-31T06:45:15;8.90;99.90
58554;DHT22;48119;53.218;6.576;2023-01-31T06:47:43;8.90;99.90
58554;DHT22;48119;53.218;6.576;2023-01-31T06:50:09;8.90;99.90
58554;DHT22;48119;53.218;6.576;2023-01-31T06:52:40;8.90;99.90
58554;DHT22;48119;53.218;6.576;2023-01-31T06:55:07;8.90;99.90
58554;DHT22;48119;53.218;6.576;2023-01-31T06:57:35;8.90;99.90
58554;DHT22;48119;53.218;6.576;2023-01-31T07:00:02;8.90;99.90
58554;DHT22;48119;53.218;6.576;2023-01-31T07:05:08;8.90;99.90
58554;DHT22;48119;53.218;6.576;2023-01-31T07:07:37;8.90;99.90
58554;DHT22;48119;53.218;6.576;2023-01-31T07:10:03;8.90;99.90
58554;DHT22;48119;53.218;6.576;2023-01-31T07:12:29;8.90;99.90
58554;DHT22;48119;53.218;6.576;2023-01-31T07:14:58;8.90;99.90
58554;DHT22;48119;53.218;6.576;2023-01-31T07:17:23;8.90;99.90
58554;DHT22;48119;53.218;6.576;2023-01-31T07:19:52;8.90;99.90
58554;DHT22;48119;53.218;6.576;2023-01-31T07:22:17;8.90;99.90
58554;DHT22;48119;53.218;6.576;2023-01-31T07:24:46;8.90;99.90
58554;DHT22;48119;53.218;6.576;2023-01-31T07:27:15;8.90;99.90
58554;DHT22;48119;53.218;6.576;2023-01-31T07:29:46;8.90;99.90
58554;DHT22;48119;53.218;6.576;2023-01-31T07:32:16;8.90;99.90
58554;DHT22;48119;53.218;6.576;2023-01-31T07:34:45;9.00;99.90
58554;DHT22;48119;53.218;6.576;2023-01-31T07:37:11;8.90;99.90
58554;DHT22;48119;53.218;6.576;2023-01-31T07:39:39;8.90;99.90
58554;DHT22;48119;53.218;6.576;2023-01-31T07:42:08;9.00;99.90
58554;DHT22;48119;53.218;6.576;2023-01-31T07:44:34;9.00;99.90
58554;DHT22;48119;53.218;6.576;2023-01-31T07:47:02;9.00;99.90
58554;DHT22;48119;53.218;6.576;2023-01-31T07:49:28;9.00;99.90
58554;DHT22;48119;53.218;6.576;2023-01-31T07:51:56;8.90;99.90
58554;DHT22;48119;53.218;6.576;2023-01-31T07:54:22;8.90;99.90
58554;DHT22;48119;53.218;6.576;2023-01-31T07:56:55;9.00;99.90
58554;DHT22;48119;53.218;6.576;2023-01-31T07:59:24;9.00;99.90
58554;DHT22;48119;53.218;6.576;2023-01-31T08:01:49;9.00;99.90
58554;DHT22;48119;53.218;6.576;2023-01-31T08:04:34;9.00;99.90
58554;DHT22;48119;53.218;6.576;2023-01-31T08:07:02;8.90;99.90
58554;DHT22;48119;53.218;6.576;2023-01-31T08:09:38;9.00;99.90
58554;DHT22;48119;53.218;6.576;2023-01-31T08:12:16;9.00;99.90
58554;DHT22;48119;53.218;6.576;2023-01-31T08:14:45;9.00;99.90
58554;DHT22;48119;53.218;6.576;2023-01-31T08:17:11;9.00;99.90
58554;DHT22;48119;53.218;6.576;2023-01-31T08:19:39;8.90;99.90
58554;DHT22;48119;53.218;6.576;2023-01-31T08:22:07;9.00;99.90
58554;DHT22;48119;53.218;6.576;2023-01-31T08:24:33;9.00;99.90
58554;DHT22;48119;53.218;6.576;2023-01-31T08:27:05;8.90;99.90
58554;DHT22;48119;53.218;6.576;2023-01-31T08:29:30;9.00;99.90
58554;DHT22;48119;53.218;6.576;2023-01-31T08:31:58;9.00;99.90
58554;DHT22;48119;53.218;6.576;2023-01-31T08:34:27;9.00;99.90
58554;DHT22;48119;53.218;6.576;2023-01-31T08:36:56;9.00;99.90
58554;DHT22;48119;53.218;6.576;2023-01-31T08:39:28;8.90;99.90
58554;DHT22;48119;53.218;6.576;2023-01-31T08:41:57;9.00;99.90
58554;DHT22;48119;53.218;6.576;2023-01-31T08:44:22;9.00;99.90
58554;DHT22;48119;53.218;6.576;2023-01-31T08:46:50;9.00;99.90
58554;DHT22;48119;53.218;6.576;2023-01-31T08:49:16;9.00;99.90
58554;DHT22;48119;53.218;6.576;2023-01-31T08:51:42;9.00;99.90
58554;DHT22;48119;53.218;6.576;2023-01-31T08:54:09;9.00;99.90
58554;DHT22;48119;53.218;6.576;2023-01-31T08:56:39;9.00;99.90
58554;DHT22;48119;53.218;6.576;2023-01-31T08:59:09;9.00;99.90
58554;DHT22;48119;53.218;6.576;2023-01-31T09:01:35;9.00;99.90
58554;DHT22;48119;53.218;6.576;2023-01-31T09:04:11;9.10;99.90
58554;DHT22;48119;53.218;6.576;2023-01-31T09:06:40;9.10;99.90
58554;DHT22;48119;53.218;6.576;2023-01-31T09:09:08;9.10;99.90
58554;DHT22;48119;53.218;6.576;2023-01-31T09:11:37;9.10;99.90
58554;DHT22;48119;53.218;6.576;2023-01-31T09:14:04;9.20;99.90
58554;DHT22;48119;53.218;6.576;2023-01-31T09:16:29;9.10;99.90
58554;DHT22;48119;53.218;6.576;2023-01-31T09:18:58;9.10;99.90
58554;DHT22;48119;53.218;6.576;2023-01-31T09:21:26;9.10;99.90
58554;DHT22;48119;53.218;6.576;2023-01-31T09:23:59;9.20;99.90
58554;DHT22;48119;53.218;6.576;2023-01-31T09:26:26;9.10;99.90
58554;DHT22;48119;53.218;6.576;2023-01-31T09:28:53;9.20;99.90
58554;DHT22;48119;53.218;6.576;2023-01-31T09:31:32;9.20;99.90
58554;DHT22;48119;53.218;6.576;2023-01-31T09:34:00;9.20;99.90
58554;DHT22;48119;53.218;6.576;2023-01-31T09:36:28;9.20;99.90
58554;DHT22;48119;53.218;6.576;2023-01-31T09:38:55;9.20;99.90
58554;DHT22;48119;53.218;6.576;2023-01-31T09:44:27;9.20;99.90
58554;DHT22;48119;53.218;6.576;2023-01-31T09:50:20;9.20;99.90
58554;DHT22;48119;53.218;6.576;2023-01-31T09:52:50;9.20;99.90
58554;DHT22;48119;53.218;6.576;2023-01-31T09:55:34;9.20;99.90
58554;DHT22;48119;53.218;6.576;2023-01-31T10:01:21;9.30;99.90
58554;DHT22;48119;53.218;6.576;2023-01-31T10:04:00;9.30;99.90
58554;DHT22;48119;53.218;6.576;2023-01-31T10:07:00;9.30;99.90
58554;DHT22;48119;53.218;6.576;2023-01-31T10:12:16;9.30;99.90
58554;DHT22;48119;53.218;6.576;2023-01-31T10:14:49;9.30;99.90
58554;DHT22;48119;53.218;6.576;2023-01-31T10:17:32;9.30;99.90
58554;DHT22;48119;53.218;6.576;2023-01-31T10:20:07;9.30;99.90
58554;DHT22;48119;53.218;6.576;2023-01-31T10:22:51;9.30;99.90
58554;DHT22;48119;53.218;6.576;2023-01-31T10:25:26;9.30;99.90
58554;DHT22;48119;53.218;6.576;2023-01-31T10:28:01;9.30;99.90
58554;DHT22;48119;53.218;6.576;2023-01-31T10:36:08;9.30;99.90
58554;DHT22;48119;53.218;6.576;2023-01-31T10:38:57;9.30;99.90
58554;DHT22;48119;53.218;6.576;2023-01-31T10:44:26;9.30;99.90
58554;DHT22;48119;53.218;6.576;2023-01-31T10:46:56;9.30;99.90
58554;DHT22;48119;53.218;6.576;2023-01-31T10:49:25;9.30;99.90
58554;DHT22;48119;53.218;6.576;2023-01-31T10:54:48;9.20;99.90
58554;DHT22;48119;53.218;6.576;2023-01-31T10:57:18;9.20;99.90
58554;DHT22;48119;53.218;6.576;2023-01-31T10:59:45;9.30;99.90
58554;DHT22;48119;53.218;6.576;2023-01-31T11:02:41;9.30;99.90
58554;DHT22;48119;53.218;6.576;2023-01-31T11:05:17;9.30;99.90
58554;DHT22;48119;53.218;6.576;2023-01-31T11:07:43;9.30;99.90
58554;DHT22;48119;53.218;6.576;2023-01-31T11:10:25;9.30;99.90
58554;DHT22;48119;53.218;6.576;2023-01-31T11:12:57;9.40;99.90
58554;DHT22;48119;53.218;6.576;2023-01-31T11:15:27;9.30;99.90
58554;DHT22;48119;53.218;6.576;2023-01-31T11:17:58;9.40;99.90
58554;DHT22;48119;53.218;6.576;2023-01-31T11:20:34;9.40;99.90
58554;DHT22;48119;53.218;6.576;2023-01-31T11:23:03;9.40;99.90
58554;DHT22;48119;53.218;6.576;2023-01-31T11:25:30;9.40;99.90
58554;DHT22;48119;53.218;6.576;2023-01-31T11:28:00;9.40;99.90
58554;DHT22;48119;53.218;6.576;2023-01-31T11:30:35;9.40;99.90
58554;DHT22;48119;53.218;6.576;2023-01-31T11:33:05;9.40;99.90
58554;DHT22;48119;53.218;6.576;2023-01-31T11:35:34;9.40;99.90
58554;DHT22;48119;53.218;6.576;2023-01-31T11:38:01;9.40;99.90
58554;DHT22;48119;53.218;6.576;2023-01-31T11:40:34;9.40;99.90
58554;DHT22;48119;53.218;6.576;2023-01-31T11:43:19;9.50;99.90
58554;DHT22;48119;53.218;6.576;2023-01-31T11:46:01;9.60;99.90
58554;DHT22;48119;53.218;6.576;2023-01-31T11:48:43;9.60;99.90
58554;DHT22;48119;53.218;6.576;2023-01-31T11:51:21;9.70;99.90
58554;DHT22;48119;53.218;6.576;2023-01-31T11:53:51;9.60;99.90
58554;DHT22;48119;53.218;6.576;2023-01-31T11:58:51;9.60;99.90
58554;DHT22;48119;53.218;6.576;2023-01-31T12:01:19;9.70;99.90
58554;DHT22;48119;53.218;6.576;2023-01-31T12:04:10;9.60;99.90
58554;DHT22;48119;53.218;6.576;2023-01-31T12:06:40;9.70;99.90
58554;DHT22;48119;53.218;6.576;2023-01-31T12:09:21;9.60;99.90
58554;DHT22;48119;53.218;6.576;2023-01-31T12:12:01;9.60;99.90
58554;DHT22;48119;53.218;6.576;2023-01-31T12:14:40;9.70;99.90
58554;DHT22;48119;53.218;6.576;2023-01-31T12:17:12;9.70;99.90
58554;DHT22;48119;53.218;6.576;2023-01-31T12:22:41;9.70;99.90
58554;DHT22;48119;53.218;6.576;2023-01-31T12:25:34;9.70;99.90
58554;DHT22;48119;53.218;6.576;2023-01-31T12:28:18;9.70;99.90
58554;DHT22;48119;53.218;6.576;2023-01-31T12:30:57;9.80;99.90
58554;DHT22;48119;53.218;6.576;2023-01-31T12:50:11;10.00;99.90
58554;DHT22;48119;53.218;6.576;2023-01-31T13:04:22;10.00;99.90
58554;DHT22;48119;53.218;6.576;2023-01-31T13:06:53;10.00;99.90
58554;DHT22;48119;53.218;6.576;2023-01-31T13:09:31;10.00;99.90
58554;DHT22;48119;53.218;6.576;2023-01-31T13:12:20;10.00;99.90
58554;DHT22;48119;53.218;6.576;2023-01-31T13:17:27;10.00;99.90
58554;DHT22;48119;53.218;6.576;2023-01-31T13:19:57;10.10;99.90
58554;DHT22;48119;53.218;6.576;2023-01-31T13:22:43;10.10;99.90
58554;DHT22;48119;53.218;6.576;2023-01-31T13:25:30;10.10;99.90
58554;DHT22;48119;53.218;6.576;2023-01-31T13:28:02;10.10;99.90
58554;DHT22;48119;53.218;6.576;2023-01-31T13:30:40;10.10;99.90
58554;DHT22;48119;53.218;6.576;2023-01-31T13:35:59;10.20;99.90
58554;DHT22;48119;53.218;6.576;2023-01-31T13:38:35;10.10;99.90
58554;DHT22;48119;53.218;6.576;2023-01-31T13:44:00;10.20;99.90
58554;DHT22;48119;53.218;6.576;2023-01-31T13:46:33;10.20;99.90
58554;DHT22;48119;53.218;6.576;2023-01-31T13:49:08;10.20;99.90
58554;DHT22;48119;53.218;6.576;2023-01-31T13:51:57;10.20;99.90
58554;DHT22;48119;53.218;6.576;2023-01-31T13:54:32;10.10;99.90
58554;DHT22;48119;53.218;6.576;2023-01-31T13:57:00;10.20;99.90
58554;DHT22;48119;53.218;6.576;2023-01-31T13:59:34;10.10;99.90
58554;DHT22;48119;53.218;6.576;2023-01-31T14:02:04;10.20;99.90
58554;DHT22;48119;53.218;6.576;2023-01-31T14:04:35;10.20;99.90
58554;DHT22;48119;53.218;6.576;2023-01-31T14:14:53;10.20;99.90
58554;DHT22;48119;53.218;6.576;2023-01-31T14:22:38;10.20;99.90
58554;DHT22;48119;53.218;6.576;2023-01-31T14:30:35;10.30;99.90
58554;DHT22;48119;53.218;6.576;2023-01-31T14:38:49;10.20;99.90
58554;DHT22;48119;53.218;6.576;2023-01-31T14:44:05;10.30;99.90
58554;DHT22;48119;53.218;6.576;2023-01-31T15:00:28;10.20;99.90
58554;DHT22;48119;53.218;6.576;2023-01-31T15:03:28;10.20;99.90
58554;DHT22;48119;53.218;6.576;2023-01-31T15:06:31;10.20;99.90
58554;DHT22;48119;53.218;6.576;2023-01-31T15:11:51;10.20;99.90
58554;DHT22;48119;53.218;6.576;2023-01-31T15:14:33;10.20;99.90
58554;DHT22;48119;53.218;6.576;2023-01-31T15:19:53;10.20;99.90
58554;DHT22;48119;53.218;6.576;2023-01-31T15:22:27;10.20;99.90
58554;DHT22;48119;53.218;6.576;2023-01-31T15:25:00;10.10;99.90
58554;DHT22;48119;53.218;6.576;2023-01-31T15:27:29;10.20;99.90
58554;DHT22;48119;53.218;6.576;2023-01-31T15:30:28;10.10;99.90
58554;DHT22;48119;53.218;6.576;2023-01-31T15:33:06;10.10;99.90
58554;DHT22;48119;53.218;6.576;2023-01-31T15:35:59;10.10;99.90
58554;DHT22;48119;53.218;6.576;2023-01-31T15:39:03;10.10;99.90
58554;DHT22;48119;53.218;6.576;2023-01-31T15:41:37;10.10;99.90
58554;DHT22;48119;53.218;6.576;2023-01-31T15:44:20;10.00;99.90
58554;DHT22;48119;53.218;6.576;2023-01-31T15:46:52;10.10;99.90
58554;DHT22;48119;53.218;6.576;2023-01-31T15:54:37;10.00;99.90
58554;DHT22;48119;53.218;6.576;2023-01-31T15:57:17;10.00;99.90
58554;DHT22;48119;53.218;6.576;2023-01-31T15:59:46;10.00;99.90
58554;DHT22;48119;53.218;6.576;2023-01-31T16:02:26;10.00;99.90
58554;DHT22;48119;53.218;6.576;2023-01-31T16:04:52;9.90;99.90
58554;DHT22;48119;53.218;6.576;2023-01-31T16:07:30;9.90;99.90
58554;DHT22;48119;53.218;6.576;2023-01-31T16:10:04;9.90;99.90
58554;DHT22;48119;53.218;6.576;2023-01-31T16:12:39;9.90;99.90
58554;DHT22;48119;53.218;6.576;2023-01-31T16:15:13;9.90;99.90
58554;DHT22;48119;53.218;6.576;2023-01-31T16:17:40;9.90;99.90
58554;DHT22;48119;53.218;6.576;2023-01-31T16:20:30;9.90;99.90
58554;DHT22;48119;53.218;6.576;2023-01-31T16:22:59;10.00;99.90
58554;DHT22;48119;53.218;6.576;2023-01-31T16:25:25;9.80;99.90
58554;DHT22;48119;53.218;6.576;2023-01-31T16:27:56;9.80;99.90
58554;DHT22;48119;53.218;6.576;2023-01-31T16:30:33;9.80;99.90
58554;DHT22;48119;53.218;6.576;2023-01-31T16:33:21;9.80;99.90
58554;DHT22;48119;53.218;6.576;2023-01-31T16:36:10;9.80;99.90
58554;DHT22;48119;53.218;6.576;2023-01-31T16:38:40;9.70;99.40
58554;DHT22;48119;53.218;6.576;2023-01-31T16:41:06;9.70;99.30
58554;DHT22;48119;53.218;6.576;2023-01-31T16:43:40;9.70;99.10
58554;DHT22;48119;53.218;6.576;2023-01-31T16:46:20;9.70;98.90
58554;DHT22;48119;53.218;6.576;2023-01-31T16:49:02;9.70;98.40
58554;DHT22;48119;53.218;6.576;2023-01-31T17:04:49;9.70;98.00
58554;DHT22;48119;53.218;6.576;2023-01-31T17:07:21;9.70;98.40
58554;DHT22;48119;53.218;6.576;2023-01-31T17:09:48;9.70;98.60
58554;DHT22;48119;53.218;6.576;2023-01-31T17:12:29;9.70;98.70
58554;DHT22;48119;53.218;6.576;2023-01-31T17:14:55;9.70;98.80
58554;DHT22;48119;53.218;6.576;2023-01-31T17:17:29;9.70;99.10
58554;DHT22;48119;53.218;6.576;2023-01-31T17:19:55;9.60;99.20
58554;DHT22;48119;53.218;6.576;2023-01-31T17:22:21;9.70;99.30
58554;DHT22;48119;53.218;6.576;2023-01-31T17:24:48;9.70;99.30
58554;DHT22;48119;53.218;6.576;2023-01-31T17:27:18;9.60;99.20
58554;DHT22;48119;53.218;6.576;2023-01-31T17:29:46;9.60;99.10
58554;DHT22;48119;53.218;6.576;2023-01-31T17:32:15;9.60;99.00
58554;DHT22;48119;53.218;6.576;2023-01-31T17:34:41;9.60;98.80
58554;DHT22;48119;53.218;6.576;2023-01-31T17:37:09;9.60;98.60
58554;DHT22;48119;53.218;6.576;2023-01-31T17:39:35;9.60;98.40
58554;DHT22;48119;53.218;6.576;2023-01-31T17:42:04;9.60;98.10
58554;DHT22;48119;53.218;6.576;2023-01-31T17:44:32;9.60;98.00
58554;DHT22;48119;53.218;6.576;2023-01-31T17:46:58;9.60;98.00
58554;DHT22;48119;53.218;6.576;2023-01-31T17:49:24;9.60;97.80
58554;DHT22;48119;53.218;6.576;2023-01-31T17:51:49;9.60;97.70
58554;DHT22;48119;53.218;6.576;2023-01-31T17:54:26;9.60;97.60
58554;DHT22;48119;53.218;6.576;2023-01-31T17:56:55;9.50;97.50
58554;DHT22;48119;53.218;6.576;2023-01-31T17:59:34;9.50;97.40
58554;DHT22;48119;53.218;6.576;2023-01-31T18:02:05;9.50;97.50
58554;DHT22;48119;53.218;6.576;2023-01-31T18:04:36;9.50;97.50
58554;DHT22;48119;53.218;6.576;2023-01-31T18:07:14;9.50;97.40
58554;DHT22;48119;53.218;6.576;2023-01-31T18:09:40;9.50;97.40
58554;DHT22;48119;53.218;6.576;2023-01-31T18:12:08;9.50;97.40
58554;DHT22;48119;53.218;6.576;2023-01-31T18:14:34;9.50;97.30
58554;DHT22;48119;53.218;6.576;2023-01-31T18:17:03;9.50;97.40
58554;DHT22;48119;53.218;6.576;2023-01-31T18:19:29;9.50;97.20
58554;DHT22;48119;53.218;6.576;2023-01-31T18:21:55;9.50;97.30
58554;DHT22;48119;53.218;6.576;2023-01-31T18:24:21;9.50;97.40
58554;DHT22;48119;53.218;6.576;2023-01-31T18:26:47;9.50;97.30
58554;DHT22;48119;53.218;6.576;2023-01-31T18:29:14;9.50;97.30
58554;DHT22;48119;53.218;6.576;2023-01-31T18:31:48;9.50;97.40
58554;DHT22;48119;53.218;6.576;2023-01-31T18:34:14;9.50;97.30
58554;DHT22;48119;53.218;6.576;2023-01-31T18:36:42;9.50;97.40
58554;DHT22;48119;53.218;6.576;2023-01-31T18:39:11;9.50;97.60
58554;DHT22;48119;53.218;6.576;2023-01-31T18:41:40;9.50;97.60
58554;DHT22;48119;53.218;6.576;2023-01-31T18:44:09;9.50;97.70
58554;DHT22;48119;53.218;6.576;2023-01-31T18:46:35;9.40;97.70
58554;DHT22;48119;53.218;6.576;2023-01-31T18:49:01;9.50;97.90
58554;DHT22;48119;53.218;6.576;2023-01-31T18:51:29;9.40;97.90
58554;DHT22;48119;53.218;6.576;2023-01-31T18:53:55;9.50;98.00
58554;DHT22;48119;53.218;6.576;2023-01-31T18:56:24;9.50;98.10
58554;DHT22;48119;53.218;6.576;2023-01-31T18:58:51;9.50;98.10
58554;DHT22;48119;53.218;6.576;2023-01-31T19:01:32;9.50;98.10
58554;DHT22;48119;53.218;6.576;2023-01-31T19:04:08;9.50;98.10